Ferry Katsuragi — JI3611 — position and weather

sailwx.info

Track history (hours):
 
Tides and Currents Weather Stations Pressure Air Temp Water Temp Dewpoint Dewpoint Depression Visibility Wind Speed Wind Dir Waves Ship Positions

Ferry Katsuragi

Last reported at 2014-Sep-17 00:06 UTC. Time now 2014-Sep-17 01:31 UTC.
Position N 34°11' E 134°59'.

Length 108 m; draft 4 m.

Type: Passenger vessel. MMSI: 431301245.

Date/timePositionNaut miles runAvg speedWind from/ knotsBaromVisibWave heightAir tempDewpointWater temp
2014-Sep-17 00:06N 34°11' E 134°59'814.2
2014-Sep-16 23:33N 34°13' E 135°08'2 1.7
2014-Sep-16 22:33N 34°13' E 135°06'18 5.3
2014-Sep-16 19:05N 34°06' E 134°45'814.7
2014-Sep-16 18:31N 34°09' E 134°55'1212.8
2014-Sep-16 17:33N 34°13' E 135°09'0 0.0
2014-Sep-16 16:33N 34°13' E 135°09'0 0.0
2014-Sep-16 15:33N 34°13' E 135°09'6 6.5
2014-Sep-16 14:33N 34°10' E 135°01'9 2.8
2014-Sep-16 11:19N 34°08' E 134°51'1013.5
2014-Sep-16 10:33N 34°12' E 135°03'5 4.9
2014-Sep-16 09:34N 34°13' E 135°08'12 2.9
2014-Sep-16 05:32N 34°09' E 134°55'1212.1
2014-Sep-16 04:33N 34°13' E 135°09'9 2.0
2014-Sep-16 00:09N 34°09' E 134°59'914.9
2014-Sep-15 23:34N 34°13' E 135°08'2 2.2
2014-Sep-15 22:34N 34°13' E 135°06'1615.7
2014-Sep-15 21:32N 34°06' E 134°48'2 1.0
2014-Sep-15 19:09N 34°06' E 134°45'1214.3
2014-Sep-15 18:16N 34°11' E 134°59'811.6
2014-Sep-15 17:33N 34°13' E 135°09'0 0.0
2014-Sep-15 16:33N 34°13' E 135°09'0 0.0
2014-Sep-15 15:33N 34°13' E 135°09'5 5.3
2014-Sep-15 14:33N 34°12' E 135°02'15 5.0
2014-Sep-15 11:32N 34°06' E 134°46'1515.5
2014-Sep-15 10:33N 34°12' E 135°03'5 5.2
2014-Sep-15 09:33N 34°13' E 135°09'11 2.7
2014-Sep-15 05:27N 34°09' E 134°56'1112.4
2014-Sep-15 04:33N 34°13' E 135°09'16 4.0
2014-Sep-15 00:33N 34°07' E 134°50'1615.7
2014-Sep-14 23:34N 34°13' E 135°08'3 2.7
2014-Sep-14 22:33N 34°13' E 135°05'19 5.8
2014-Sep-14 19:15N 34°05' E 134°43'1314.7
2014-Sep-14 18:21N 34°10' E 134°58'911.7
2014-Sep-14 17:33N 34°13' E 135°09'0 0.0
2014-Sep-14 16:33N 34°13' E 135°09'0 0.0
2014-Sep-14 15:33N 34°13' E 135°09'6 6.0
2014-Sep-14 14:33N 34°12' E 135°02'13 4.1
2014-Sep-14 11:25N 34°06' E 134°48'1415.8
2014-Sep-14 10:34N 34°11' E 135°03'5 5.1
2014-Sep-14 09:33N 34°13' E 135°09'21 6.0
2014-Sep-14 06:07N 34°06' E 134°45'814.7
2014-Sep-14 05:33N 34°09' E 134°54'1212.4
2014-Sep-14 04:33N 34°13' E 135°09'6 6.2
2014-Sep-14 03:33N 34°12' E 135°01'16 1.8
2014-Sep-13 19:08N 34°05' E 134°45'1215.2
2014-Sep-13 18:21N 34°10' E 134°57'1012.3
2014-Sep-13 17:33N 34°13' E 135°09'0 0.0
2014-Sep-13 16:33N 34°13' E 135°09'0 0.0
2014-Sep-13 15:33N 34°13' E 135°09'5 5.1
2014-Sep-13 14:34N 34°12' E 135°03'15 5.1
2014-Sep-13 11:33N 34°06' E 134°45'1515.6
2014-Sep-13 10:33N 34°12' E 135°03'5 4.8
2014-Sep-13 09:33N 34°13' E 135°08'20 5.8
2014-Sep-13 06:07N 34°06' E 134°46'1115.2
2014-Sep-13 05:24N 34°10' E 134°58'911.0
2014-Sep-13 04:34N 34°13' E 135°09'6 6.1
2014-Sep-13 03:33N 34°12' E 135°01'9 3.1
2014-Sep-13 00:29N 34°08' E 134°51'1516.3
2014-Sep-12 23:33N 34°13' E 135°08'1 1.2
2014-Sep-12 22:33N 34°13' E 135°07'10 2.5
2014-Sep-12 18:29N 34°08' E 134°56'1212.7
2014-Sep-12 17:33N 34°13' E 135°09'0 0.0
2014-Sep-12 16:33N 34°13' E 135°09'0 0.0
2014-Sep-12 15:33N 34°13' E 135°09'6 6.4
2014-Sep-12 14:33N 34°12' E 135°01'13 4.3
2014-Sep-12 11:32N 34°07' E 134°46'1514.9
2014-Sep-12 10:33N 34°12' E 135°03'5 5.0
2014-Sep-12 09:33N 34°13' E 135°09'21 6.2
2014-Sep-12 06:10N 34°05' E 134°45'1115.0
2014-Sep-12 05:27N 34°09' E 134°57'1011.5
2014-Sep-12 04:34N 34°13' E 135°09'6 5.9
2014-Sep-12 03:32N 34°12' E 135°01'6 1.7
2014-Sep-12 00:18N 34°09' E 134°55'1115.1
2014-Sep-11 23:33N 34°13' E 135°08'2 2.1
2014-Sep-11 22:33N 34°13' E 135°06'23 7.3
2014-Sep-11 19:25N 34°04' E 134°40'1414.5
2014-Sep-11 18:27N 34°09' E 134°56'1112.6
2014-Sep-11 17:33N 34°13' E 135°09'0 0.0
2014-Sep-11 16:33N 34°13' E 135°09'0 0.0
2014-Sep-11 15:33N 34°13' E 135°09'6 6.0
2014-Sep-11 14:34N 34°11' E 135°02'12 3.8
2014-Sep-11 11:25N 34°07' E 134°48'1314.8
2014-Sep-11 10:33N 34°12' E 135°03'5 5.1
2014-Sep-11 09:34N 34°13' E 135°09'20 5.9
2014-Sep-11 06:09N 34°06' E 134°46'1214.6
2014-Sep-11 05:20N 34°11' E 134°59'810.9
2014-Sep-11 04:33N 34°13' E 135°09'8 7.3
2014-Sep-11 03:25N 34°10' E 134°59'4 1.4
2014-Sep-11 00:23N 34°09' E 134°55'1214.4
2014-Sep-10 23:33N 34°13' E 135°08'1 1.4
2014-Sep-10 22:33N 34°13' E 135°06'24 7.6
2014-Sep-10 19:26N 34°04' E 134°40'1314.4
2014-Sep-10 18:30N 34°09' E 134°55'1212.8
2014-Sep-10 17:33N 34°13' E 135°09'0 0.0
2014-Sep-10 16:33N 34°13' E 135°09'0 0.0
2014-Sep-10 15:33N 34°13' E 135°09'5 4.9
2014-Sep-10 14:33N 34°12' E 135°03'15 5.0
2014-Sep-10 11:32N 34°06' E 134°46'1515.1
2014-Sep-10 10:33N 34°12' E 135°03'5 5.1
2014-Sep-10 09:34N 34°13' E 135°09'20 5.8
2014-Sep-10 06:05N 34°06' E 134°46'1215.5
2014-Sep-10 05:17N 34°11' E 134°59'811.1
2014-Sep-10 04:33N 34°13' E 135°09'6 6.0
2014-Sep-10 03:33N 34°12' E 135°01'6 1.8
2014-Sep-10 00:21N 34°10' E 134°55'1114.5
2014-Sep-09 23:33N 34°13' E 135°08'2 2.3
2014-Sep-09 22:33N 34°13' E 135°06'20 6.1
2014-Sep-09 19:17N 34°05' E 134°43'1214.4
2014-Sep-09 18:29N 34°10' E 134°56'1111.7
2014-Sep-09 17:33N 34°13' E 135°09'0 0.0
2014-Sep-09 16:33N 34°13' E 135°09'0 0.0
2014-Sep-09 15:33N 34°13' E 135°09'6 6.0
2014-Sep-09 14:33N 34°12' E 135°02'13 4.2
2014-Sep-09 11:31N 34°06' E 134°48'1414.2
2014-Sep-09 10:33N 34°11' E 135°03'5 5.0
2014-Sep-09 09:33N 34°13' E 135°08'19 5.5
2014-Sep-09 06:04N 34°07' E 134°46'1014.5
2014-Sep-09 05:22N 34°10' E 134°58'911.4
2014-Sep-09 04:33N 34°13' E 135°09'8 7.4
2014-Sep-09 03:28N 34°10' E 134°60'3 1.1
2014-Sep-09 00:20N 34°10' E 134°56'1114.6
2014-Sep-08 23:33N 34°13' E 135°09'2 2.5
2014-Sep-08 22:33N 34°13' E 135°06'18 5.2
2014-Sep-08 19:06N 34°06' E 134°45'1015.0
2014-Sep-08 18:27N 34°10' E 134°56'1112.2
2014-Sep-08 17:33N 34°13' E 135°09'0 0.0
2014-Sep-08 16:34N 34°13' E 135°09'0 0.0
2014-Sep-08 15:33N 34°13' E 135°09'6 6.2
2014-Sep-08 14:33N 34°10' E 135°02'12 3.8
2014-Sep-08 11:27N 34°07' E 134°48'1314.3
2014-Sep-08 10:33N 34°12' E 135°03'5 4.9
2014-Sep-08 09:33N 34°13' E 135°08'20 5.7
2014-Sep-08 06:04N 34°06' E 134°46'915.1
2014-Sep-08 05:28N 34°09' E 134°56'1112.1
2014-Sep-08 04:33N 34°13' E 135°09'6 6.4
2014-Sep-08 03:32N 34°11' E 135°01'4 1.2
2014-Sep-08 00:14N 34°10' E 134°57'1014.7
2014-Sep-07 23:33N 34°13' E 135°08'2 1.9
2014-Sep-07 22:34N 34°13' E 135°06'23 7.3
2014-Sep-07 19:23N 34°04' E 134°40'1515.0
2014-Sep-07 18:22N 34°10' E 134°57'1012.2
2014-Sep-07 17:33N 34°13' E 135°09'0 0.0
2014-Sep-07 16:33N 34°13' E 135°09'0 0.0
2014-Sep-07 15:33N 34°13' E 135°09'6 6.0
2014-Sep-07 14:33N 34°11' E 135°02'11 3.4
2014-Sep-07 11:22N 34°07' E 134°49'1214.6
2014-Sep-07 10:34N 34°12' E 135°03'5 5.1
2014-Sep-07 09:34N 34°13' E 135°08'20 5.9
2014-Sep-07 06:06N 34°06' E 134°45'914.9
2014-Sep-07 05:31N 34°09' E 134°55'1212.2
2014-Sep-07 04:33N 34°13' E 135°09'6 6.1
2014-Sep-07 03:33N 34°11' E 135°02'17 6.8
2014-Sep-07 01:03N 34°04' E 134°43'  
Track history (hours):
 
Tides and Currents Weather Stations Pressure Air Temp Water Temp Dewpoint Dewpoint Depression Visibility Wind Speed Wind Dir Waves Ship Positions

Ferry Katsuragi

Last reported at 2014-Sep-17 00:06 UTC. Time now 2014-Sep-17 01:31 UTC.
Position N 34°11' E 134°59'.

Length 108 m; draft 4 m.

Type: Passenger vessel. MMSI: 431301245.

Date/timePositionNaut miles runAvg speedWind from/ knotsBaromVisibWave heightAir tempDewpointWater temp
2014-Sep-17 00:06N 34°11' E 134°59'814.2
2014-Sep-16 23:33N 34°13' E 135°08'2 1.7
2014-Sep-16 22:33N 34°13' E 135°06'18 5.3
2014-Sep-16 19:05N 34°06' E 134°45'814.7
2014-Sep-16 18:31N 34°09' E 134°55'1212.8
2014-Sep-16 17:33N 34°13' E 135°09'0 0.0
2014-Sep-16 16:33N 34°13' E 135°09'0 0.0
2014-Sep-16 15:33N 34°13' E 135°09'6 6.5
2014-Sep-16 14:33N 34°10' E 135°01'9 2.8
2014-Sep-16 11:19N 34°08' E 134°51'1013.5
2014-Sep-16 10:33N 34°12' E 135°03'5 4.9
2014-Sep-16 09:34N 34°13' E 135°08'12 2.9
2014-Sep-16 05:32N 34°09' E 134°55'1212.1
2014-Sep-16 04:33N 34°13' E 135°09'9 2.0
2014-Sep-16 00:09N 34°09' E 134°59'914.9
2014-Sep-15 23:34N 34°13' E 135°08'2 2.2
2014-Sep-15 22:34N 34°13' E 135°06'1615.7
2014-Sep-15 21:32N 34°06' E 134°48'2 1.0
2014-Sep-15 19:09N 34°06' E 134°45'1214.3
2014-Sep-15 18:16N 34°11' E 134°59'811.6
2014-Sep-15 17:33N 34°13' E 135°09'0 0.0
2014-Sep-15 16:33N 34°13' E 135°09'0 0.0
2014-Sep-15 15:33N 34°13' E 135°09'5 5.3
2014-Sep-15 14:33N 34°12' E 135°02'15 5.0
2014-Sep-15 11:32N 34°06' E 134°46'1515.5
2014-Sep-15 10:33N 34°12' E 135°03'5 5.2
2014-Sep-15 09:33N 34°13' E 135°09'11 2.7
2014-Sep-15 05:27N 34°09' E 134°56'1112.4
2014-Sep-15 04:33N 34°13' E 135°09'16 4.0
2014-Sep-15 00:33N 34°07' E 134°50'1615.7
2014-Sep-14 23:34N 34°13' E 135°08'3 2.7
2014-Sep-14 22:33N 34°13' E 135°05'19 5.8
2014-Sep-14 19:15N 34°05' E 134°43'1314.7
2014-Sep-14 18:21N 34°10' E 134°58'911.7
2014-Sep-14 17:33N 34°13' E 135°09'0 0.0
2014-Sep-14 16:33N 34°13' E 135°09'0 0.0
2014-Sep-14 15:33N 34°13' E 135°09'6 6.0
2014-Sep-14 14:33N 34°12' E 135°02'13 4.1
2014-Sep-14 11:25N 34°06' E 134°48'1415.8
2014-Sep-14 10:34N 34°11' E 135°03'5 5.1
2014-Sep-14 09:33N 34°13' E 135°09'21 6.0
2014-Sep-14 06:07N 34°06' E 134°45'814.7
2014-Sep-14 05:33N 34°09' E 134°54'1212.4
2014-Sep-14 04:33N 34°13' E 135°09'6 6.2
2014-Sep-14 03:33N 34°12' E 135°01'16 1.8
2014-Sep-13 19:08N 34°05' E 134°45'1215.2
2014-Sep-13 18:21N 34°10' E 134°57'1012.3
2014-Sep-13 17:33N 34°13' E 135°09'0 0.0
2014-Sep-13 16:33N 34°13' E 135°09'0 0.0
2014-Sep-13 15:33N 34°13' E 135°09'5 5.1
2014-Sep-13 14:34N 34°12' E 135°03'15 5.1
2014-Sep-13 11:33N 34°06' E 134°45'1515.6
2014-Sep-13 10:33N 34°12' E 135°03'5 4.8
2014-Sep-13 09:33N 34°13' E 135°08'20 5.8
2014-Sep-13 06:07N 34°06' E 134°46'1115.2
2014-Sep-13 05:24N 34°10' E 134°58'911.0
2014-Sep-13 04:34N 34°13' E 135°09'6 6.1
2014-Sep-13 03:33N 34°12' E 135°01'9 3.1
2014-Sep-13 00:29N 34°08' E 134°51'1516.3
2014-Sep-12 23:33N 34°13' E 135°08'1 1.2
2014-Sep-12 22:33N 34°13' E 135°07'10 2.5
2014-Sep-12 18:29N 34°08' E 134°56'1212.7
2014-Sep-12 17:33N 34°13' E 135°09'0 0.0
2014-Sep-12 16:33N 34°13' E 135°09'0 0.0
2014-Sep-12 15:33N 34°13' E 135°09'6 6.4
2014-Sep-12 14:33N 34°12' E 135°01'13 4.3
2014-Sep-12 11:32N 34°07' E 134°46'1514.9
2014-Sep-12 10:33N 34°12' E 135°03'5 5.0
2014-Sep-12 09:33N 34°13' E 135°09'21 6.2
2014-Sep-12 06:10N 34°05' E 134°45'1115.0
2014-Sep-12 05:27N 34°09' E 134°57'1011.5
2014-Sep-12 04:34N 34°13' E 135°09'6 5.9
2014-Sep-12 03:32N 34°12' E 135°01'6 1.7
2014-Sep-12 00:18N 34°09' E 134°55'1115.1
2014-Sep-11 23:33N 34°13' E 135°08'2 2.1
2014-Sep-11 22:33N 34°13' E 135°06'23 7.3
2014-Sep-11 19:25N 34°04' E 134°40'1414.5
2014-Sep-11 18:27N 34°09' E 134°56'1112.6
2014-Sep-11 17:33N 34°13' E 135°09'0 0.0
2014-Sep-11 16:33N 34°13' E 135°09'0 0.0
2014-Sep-11 15:33N 34°13' E 135°09'6 6.0
2014-Sep-11 14:34N 34°11' E 135°02'12 3.8
2014-Sep-11 11:25N 34°07' E 134°48'1314.8
2014-Sep-11 10:33N 34°12' E 135°03'5 5.1
2014-Sep-11 09:34N 34°13' E 135°09'20 5.9
2014-Sep-11 06:09N 34°06' E 134°46'1214.6
2014-Sep-11 05:20N 34°11' E 134°59'810.9
2014-Sep-11 04:33N 34°13' E 135°09'8 7.3
2014-Sep-11 03:25N 34°10' E 134°59'4 1.4
2014-Sep-11 00:23N 34°09' E 134°55'1214.4
2014-Sep-10 23:33N 34°13' E 135°08'1 1.4
2014-Sep-10 22:33N 34°13' E 135°06'24 7.6
2014-Sep-10 19:26N 34°04' E 134°40'1314.4
2014-Sep-10 18:30N 34°09' E 134°55'1212.8
2014-Sep-10 17:33N 34°13' E 135°09'0 0.0
2014-Sep-10 16:33N 34°13' E 135°09'0 0.0
2014-Sep-10 15:33N 34°13' E 135°09'5 4.9
2014-Sep-10 14:33N 34°12' E 135°03'15 5.0
2014-Sep-10 11:32N 34°06' E 134°46'1515.1
2014-Sep-10 10:33N 34°12' E 135°03'5 5.1
2014-Sep-10 09:34N 34°13' E 135°09'20 5.8
2014-Sep-10 06:05N 34°06' E 134°46'1215.5
2014-Sep-10 05:17N 34°11' E 134°59'811.1
2014-Sep-10 04:33N 34°13' E 135°09'6 6.0
2014-Sep-10 03:33N 34°12' E 135°01'6 1.8
2014-Sep-10 00:21N 34°10' E 134°55'1114.5
2014-Sep-09 23:33N 34°13' E 135°08'2 2.3
2014-Sep-09 22:33N 34°13' E 135°06'20 6.1
2014-Sep-09 19:17N 34°05' E 134°43'1214.4
2014-Sep-09 18:29N 34°10' E 134°56'1111.7
2014-Sep-09 17:33N 34°13' E 135°09'0 0.0
2014-Sep-09 16:33N 34°13' E 135°09'0 0.0
2014-Sep-09 15:33N 34°13' E 135°09'6 6.0
2014-Sep-09 14:33N 34°12' E 135°02'13 4.2
2014-Sep-09 11:31N 34°06' E 134°48'1414.2
2014-Sep-09 10:33N 34°11' E 135°03'5 5.0
2014-Sep-09 09:33N 34°13' E 135°08'19 5.5
2014-Sep-09 06:04N 34°07' E 134°46'1014.5
2014-Sep-09 05:22N 34°10' E 134°58'911.4
2014-Sep-09 04:33N 34°13' E 135°09'8 7.4
2014-Sep-09 03:28N 34°10' E 134°60'3 1.1
2014-Sep-09 00:20N 34°10' E 134°56'1114.6
2014-Sep-08 23:33N 34°13' E 135°09'2 2.5
2014-Sep-08 22:33N 34°13' E 135°06'18 5.2
2014-Sep-08 19:06N 34°06' E 134°45'1015.0
2014-Sep-08 18:27N 34°10' E 134°56'1112.2
2014-Sep-08 17:33N 34°13' E 135°09'0 0.0
2014-Sep-08 16:34N 34°13' E 135°09'0 0.0
2014-Sep-08 15:33N 34°13' E 135°09'6 6.2
2014-Sep-08 14:33N 34°10' E 135°02'12 3.8
2014-Sep-08 11:27N 34°07' E 134°48'1314.3
2014-Sep-08 10:33N 34°12' E 135°03'5 4.9
2014-Sep-08 09:33N 34°13' E 135°08'20 5.7
2014-Sep-08 06:04N 34°06' E 134°46'915.1
2014-Sep-08 05:28N 34°09' E 134°56'1112.1
2014-Sep-08 04:33N 34°13' E 135°09'6 6.4
2014-Sep-08 03:32N 34°11' E 135°01'4 1.2
2014-Sep-08 00:14N 34°10' E 134°57'1014.7
2014-Sep-07 23:33N 34°13' E 135°08'2 1.9
2014-Sep-07 22:34N 34°13' E 135°06'23 7.3
2014-Sep-07 19:23N 34°04' E 134°40'1515.0
2014-Sep-07 18:22N 34°10' E 134°57'1012.2
2014-Sep-07 17:33N 34°13' E 135°09'0 0.0
2014-Sep-07 16:33N 34°13' E 135°09'0 0.0
2014-Sep-07 15:33N 34°13' E 135°09'6 6.0
2014-Sep-07 14:33N 34°11' E 135°02'11 3.4
2014-Sep-07 11:22N 34°07' E 134°49'1214.6
2014-Sep-07 10:34N 34°12' E 135°03'5 5.1
2014-Sep-07 09:34N 34°13' E 135°08'20 5.9
2014-Sep-07 06:06N 34°06' E 134°45'914.9
2014-Sep-07 05:31N 34°09' E 134°55'1212.2
2014-Sep-07 04:33N 34°13' E 135°09'6 6.1
2014-Sep-07 03:33N 34°11' E 135°02'17 6.8
2014-Sep-07 01:03N 34°04' E 134°43'  

Dump ship's entire track history